Time;durP1;ratioP1;P1;durP2;ratioP2;P2;SDS_P1;SDS_P2;PMS_P1;PMS_P2;Temp;Humidity;BMP_temperature;BMP_pressure;BME280_temperature;BME280_humidity;BME280_pressure;Samples;Min_cycle;Max_cycle;Signal;HPM_P1;HPM_P2
2024/01/13 00:01:50;;;;;;;0.00;0.00;;;-1.20;99.90;;;;;;4999567;28;20025;-65
2024/01/13 00:04:16;;;;;;;0.30;0.30;;;-1.30;99.90;;;;;;4997405;28;20036;-63
2024/01/13 00:06:41;;;;;;;0.00;0.00;;;-1.30;99.90;;;;;;4998191;28;20064;-63
2024/01/13 00:09:07;;;;;;;0.00;0.00;;;-1.30;99.90;;;;;;5004039;28;20018;-63
2024/01/13 00:11:33;;;;;;;0.33;0.33;;;-1.30;99.90;;;;;;5008235;28;20029;-63
2024/01/13 00:13:59;;;;;;;0.00;0.00;;;-1.30;99.90;;;;;;5002166;28;20033;-63
2024/01/13 00:16:25;;;;;;;0.00;0.00;;;-1.30;99.90;;;;;;5003008;28;20030;-64
2024/01/13 00:18:50;;;;;;;0.00;0.00;;;-1.40;99.90;;;;;;5000710;28;20037;-66
2024/01/13 00:21:16;;;;;;;0.00;0.00;;;-1.30;99.90;;;;;;5003279;28;20604;-63
2024/01/13 00:23:42;;;;;;;0.00;0.00;;;-1.30;99.90;;;;;;4999381;28;20022;-63
2024/01/13 00:26:07;;;;;;;0.00;0.00;;;-1.30;99.90;;;;;;4996060;28;20038;-63
2024/01/13 00:28:33;;;;;;;0.00;0.00;;;-1.30;99.90;;;;;;4996012;28;20033;-65
2024/01/13 00:30:59;;;;;;;0.00;0.00;;;-1.30;99.90;;;;;;4995612;28;20101;-64
2024/01/13 00:33:24;;;;;;;0.00;0.00;;;-1.30;99.90;;;;;;5011738;28;20109;-65
2024/01/13 00:35:50;;;;;;;0.00;0.00;;;-1.30;99.90;;;;;;5002347;28;20068;-63
2024/01/13 00:38:16;;;;;;;0.00;0.00;;;-1.20;99.90;;;;;;4998283;28;21349;-63
2024/01/13 00:40:42;;;;;;;0.93;0.88;;;-1.20;99.90;;;;;;5000017;28;20505;-67
2024/01/13 00:43:09;;;;;;;0.00;0.00;;;-1.20;99.90;;;;;;4993864;28;20060;-67
2024/01/13 00:45:34;;;;;;;0.00;0.00;;;-1.20;99.90;;;;;;5012328;28;20430;-68
2024/01/13 00:48:01;;;;;;;0.23;0.23;;;-1.20;99.90;;;;;;4999390;28;20037;-68
2024/01/13 00:50:26;;;;;;;0.00;0.00;;;-1.20;99.90;;;;;;4995480;28;20040;-67
2024/01/13 00:52:52;;;;;;;0.00;0.00;;;-1.20;99.90;;;;;;4997046;28;20049;-67
2024/01/13 00:55:18;;;;;;;0.00;0.00;;;-1.20;99.90;;;;;;4996125;28;20244;-67
2024/01/13 00:57:45;;;;;;;0.00;0.00;;;-1.20;99.90;;;;;;4993603;28;20033;-67
2024/01/13 01:00:11;;;;;;;0.00;0.00;;;-1.30;99.90;;;;;;4998130;28;20022;-67
2024/01/13 01:02:36;;;;;;;0.32;0.32;;;-1.30;99.90;;;;;;4992602;28;20024;-67
2024/01/13 01:05:03;;;;;;;0.17;0.17;;;-1.40;99.90;;;;;;4997434;28;20058;-67
2024/01/13 01:07:29;;;;;;;0.00;0.00;;;-1.40;99.90;;;;;;4995567;28;20121;-67
2024/01/13 01:09:54;;;;;;;1.30;1.20;;;-1.50;99.90;;;;;;4999756;28;20105;-67
2024/01/13 01:12:20;;;;;;;0.00;0.00;;;-1.50;99.90;;;;;;4997884;28;20088;-67
2024/01/13 01:14:47;;;;;;;0.00;0.00;;;-1.50;99.90;;;;;;4993939;28;20160;-67
2024/01/13 01:17:13;;;;;;;0.28;0.25;;;-1.60;99.90;;;;;;4996614;28;20017;-67
2024/01/13 01:19:38;;;;;;;0.00;0.00;;;-1.60;99.90;;;;;;4997200;28;20084;-67
2024/01/13 01:22:04;;;;;;;0.00;0.00;;;-1.60;99.90;;;;;;5024296;28;20025;-67
2024/01/13 01:24:30;;;;;;;0.00;0.00;;;-1.60;99.90;;;;;;4995354;28;20037;-67
2024/01/13 01:26:56;;;;;;;0.00;0.00;;;-1.70;99.90;;;;;;4996169;28;20030;-67
2024/01/13 01:29:21;;;;;;;0.00;0.00;;;-1.70;99.90;;;;;;5019637;28;20026;-66
2024/01/13 01:31:47;;;;;;;0.00;0.00;;;-1.60;99.90;;;;;;5001096;28;20049;-67
2024/01/13 01:34:12;;;;;;;0.00;0.00;;;-1.60;99.90;;;;;;4997716;28;20018;-67
2024/01/13 01:36:38;;;;;;;0.00;0.00;;;-1.60;99.90;;;;;;4992268;28;20064;-67
2024/01/13 01:39:04;;;;;;;0.00;0.00;;;-1.60;99.90;;;;;;4998052;28;20022;-67
2024/01/13 01:41:30;;;;;;;0.00;0.00;;;-1.60;99.90;;;;;;4999126;28;20462;-67
2024/01/13 01:43:56;;;;;;;0.00;0.00;;;-1.60;99.90;;;;;;4992320;28;20048;-66
2024/01/13 01:46:23;;;;;;;0.00;0.00;;;-1.60;99.90;;;;;;4996701;28;20453;-67
2024/01/13 01:48:57;;;;;;;0.00;0.00;;;-1.60;99.90;;;;;;4998472;28;20571;-67
2024/01/13 01:51:23;;;;;;;0.00;0.00;;;-1.60;99.90;;;;;;4997281;28;20729;-63
2024/01/13 01:53:50;;;;;;;0.00;0.00;;;-1.50;99.90;;;;;;4993014;28;20029;-64
2024/01/13 01:56:21;;;;;;;0.00;0.00;;;-1.50;99.90;;;;;;4995458;28;20022;-66
2024/01/13 01:58:49;;;;;;;0.00;0.00;;;-1.50;99.90;;;;;;4996002;28;20089;-63
2024/01/13 02:01:17;;;;;;;0.00;0.00;;;-1.50;99.90;;;;;;4998050;28;20022;-64
2024/01/13 02:03:43;;;;;;;0.00;0.00;;;-1.40;99.90;;;;;;4998557;28;20022;-63
2024/01/13 02:06:10;;;;;;;0.00;0.00;;;-1.40;99.90;;;;;;4997943;28;20080;-63
2024/01/13 02:08:37;;;;;;;0.00;0.00;;;-1.40;99.90;;;;;;4991973;28;20030;-63
2024/01/13 02:11:02;;;;;;;0.00;0.00;;;-1.40;99.90;;;;;;4995350;28;20227;-63
2024/01/13 02:13:28;;;;;;;0.00;0.00;;;-1.40;99.90;;;;;;4996512;28;20136;-64
2024/01/13 02:15:54;;;;;;;0.00;0.00;;;-1.40;99.90;;;;;;4996734;28;20640;-65
2024/01/13 02:18:20;;;;;;;0.00;0.00;;;-1.40;99.90;;;;;;4994981;28;20026;-65
2024/01/13 02:20:45;;;;;;;0.00;0.00;;;-1.40;99.90;;;;;;5001446;28;20037;-63
2024/01/13 02:23:11;;;;;;;0.00;0.00;;;-1.40;99.90;;;;;;4998398;28;20057;-63
2024/01/13 02:25:37;;;;;;;0.00;0.00;;;-1.50;99.90;;;;;;5000441;28;20116;-63
2024/01/13 02:28:03;;;;;;;0.03;0.03;;;-1.60;99.90;;;;;;4999328;28;20030;-64
2024/01/13 02:30:28;;;;;;;0.00;0.00;;;-1.60;99.90;;;;;;4999027;28;20123;-64
2024/01/13 02:32:54;;;;;;;0.00;0.00;;;-1.60;99.90;;;;;;5008450;28;20128;-63
2024/01/13 02:35:19;;;;;;;0.00;0.00;;;-1.60;99.90;;;;;;4997152;28;20057;-62
2024/01/13 02:37:45;;;;;;;0.00;0.00;;;-1.60;99.90;;;;;;4999325;28;20032;-63
2024/01/13 02:40:11;;;;;;;0.00;0.00;;;-1.70;99.90;;;;;;4998802;28;20111;-64
2024/01/13 02:42:36;;;;;;;0.00;0.00;;;-1.70;99.90;;;;;;5020635;28;20022;-64
2024/01/13 02:45:02;;;;;;;0.00;0.00;;;-1.70;99.90;;;;;;4999216;28;20584;-65
2024/01/13 02:47:41;;;;;;;0.00;0.00;;;-1.80;99.90;;;;;;4993788;28;20030;-63
2024/01/13 02:50:07;;;;;;;0.00;0.00;;;-1.70;99.90;;;;;;4996157;28;20682;-63
2024/01/13 02:52:33;;;;;;;0.00;0.00;;;-1.80;99.90;;;;;;4995524;28;20041;-65
2024/01/13 02:54:58;;;;;;;0.00;0.00;;;-1.70;99.90;;;;;;5022580;28;20026;-64
2024/01/13 02:57:25;;;;;;;0.00;0.00;;;-1.80;99.90;;;;;;4995344;28;20025;-63
2024/01/13 02:59:51;;;;;;;0.38;0.38;;;-1.80;99.90;;;;;;5002496;28;20084;-67
2024/01/13 03:02:17;;;;;;;0.00;0.00;;;-1.80;99.90;;;;;;4996980;28;20473;-66
2024/01/13 03:04:43;;;;;;;0.00;0.00;;;-1.70;99.90;;;;;;5002973;28;20396;-67
2024/01/13 03:07:08;;;;;;;0.00;0.00;;;-1.70;99.90;;;;;;5000388;28;20022;-67
2024/01/13 03:09:34;;;;;;;0.00;0.00;;;-1.70;99.90;;;;;;4996492;28;20076;-68
2024/01/13 03:12:00;;;;;;;0.00;0.00;;;-1.70;99.90;;;;;;5000166;28;20065;-66
2024/01/13 03:14:26;;;;;;;0.00;0.00;;;-1.70;99.90;;;;;;4994029;28;20117;-67
2024/01/13 03:16:51;;;;;;;0.00;0.00;;;-1.70;99.90;;;;;;4998157;28;20109;-67
2024/01/13 03:19:17;;;;;;;0.00;0.00;;;-1.70;99.90;;;;;;5000510;28;20037;-67
2024/01/13 03:21:43;;;;;;;0.00;0.00;;;-1.80;99.90;;;;;;4999000;28;20373;-67
2024/01/13 03:24:09;;;;;;;0.00;0.00;;;-1.70;99.90;;;;;;5019712;28;20462;-67
2024/01/13 03:26:34;;;;;;;0.00;0.00;;;-1.80;99.90;;;;;;4999516;28;20331;-67
2024/01/13 03:29:00;;;;;;;0.00;0.00;;;-1.80;99.90;;;;;;4997362;28;20029;-68
2024/01/13 03:31:26;;;;;;;0.00;0.00;;;-1.90;99.90;;;;;;5000922;28;20033;-67
2024/01/13 03:33:52;;;;;;;0.00;0.00;;;-1.90;99.90;;;;;;4999799;28;20041;-67
2024/01/13 03:36:17;;;;;;;0.00;0.00;;;-1.90;99.90;;;;;;5000015;28;20037;-66
2024/01/13 03:38:44;;;;;;;0.00;0.00;;;-1.90;99.90;;;;;;4998584;28;20018;-67
2024/01/13 03:41:14;;;;;;;0.00;0.00;;;-1.80;99.90;;;;;;5002053;28;20030;-67
2024/01/13 03:43:40;;;;;;;0.00;0.00;;;-1.90;99.90;;;;;;4997366;28;20618;-67
2024/01/13 03:46:06;;;;;;;0.00;0.00;;;-1.80;99.90;;;;;;4998859;28;20038;-67
2024/01/13 03:48:32;;;;;;;0.20;0.20;;;-1.80;99.90;;;;;;5012024;28;20491;-67
2024/01/13 03:50:59;;;;;;;0.00;0.00;;;-1.80;99.90;;;;;;4997835;28;20029;-68
2024/01/13 03:53:25;;;;;;;0.00;0.00;;;-1.80;99.90;;;;;;5000015;28;20046;-67
2024/01/13 03:55:51;;;;;;;0.00;0.00;;;-1.80;99.90;;;;;;4998839;28;20084;-67
2024/01/13 03:58:16;;;;;;;0.23;0.13;;;-1.70;99.90;;;;;;4997250;28;20030;-67
2024/01/13 04:00:42;;;;;;;0.00;0.00;;;-1.70;99.90;;;;;;4999265;28;20272;-67
2024/01/13 04:03:08;;;;;;;0.00;0.00;;;-1.70;99.90;;;;;;5003526;28;20026;-67
2024/01/13 04:05:34;;;;;;;0.00;0.00;;;-1.60;99.90;;;;;;5000625;28;20022;-69
2024/01/13 04:08:00;;;;;;;0.00;0.00;;;-1.60;99.90;;;;;;5000456;28;20674;-67
2024/01/13 04:10:26;;;;;;;0.00;0.00;;;-1.50;99.90;;;;;;5000894;28;20040;-65
2024/01/13 04:12:51;;;;;;;0.00;0.00;;;-1.50;99.90;;;;;;4998406;28;20029;-64
2024/01/13 04:15:17;;;;;;;0.00;0.00;;;-1.50;99.90;;;;;;4998271;28;20152;-63
2024/01/13 04:17:43;;;;;;;0.00;0.00;;;-1.50;99.90;;;;;;4999261;28;20022;-63
2024/01/13 04:20:09;;;;;;;0.00;0.00;;;-1.50;99.90;;;;;;5002480;28;20080;-63
2024/01/13 04:22:34;;;;;;;0.00;0.00;;;-1.50;99.90;;;;;;4994609;28;20056;-63
2024/01/13 04:25:00;;;;;;;0.00;0.00;;;-1.50;99.90;;;;;;5001952;28;20752;-65
2024/01/13 04:27:26;;;;;;;1.10;0.37;;;-1.50;99.90;;;;;;4998708;28;20057;-63
2024/01/13 04:29:52;;;;;;;0.00;0.00;;;-1.50;99.90;;;;;;4997751;28;20037;-64
2024/01/13 04:32:18;;;;;;;0.00;0.00;;;-1.50;99.90;;;;;;5000236;28;20042;-64
2024/01/13 04:34:43;;;;;;;0.47;0.47;;;-1.50;99.90;;;;;;5012729;28;20032;-63
2024/01/13 04:37:09;;;;;;;0.00;0.00;;;-1.50;99.90;;;;;;4993744;28;20108;-63
2024/01/13 04:39:35;;;;;;;0.00;0.00;;;-1.50;99.90;;;;;;4999106;28;20042;-64
2024/01/13 04:42:00;;;;;;;0.00;0.00;;;-1.50;99.90;;;;;;4999605;28;20477;-66
2024/01/13 04:44:26;;;;;;;0.00;0.00;;;-1.50;99.90;;;;;;4999225;28;20033;-66
2024/01/13 04:46:52;;;;;;;0.00;0.00;;;-1.50;99.90;;;;;;4997709;28;20100;-65
2024/01/13 04:49:17;;;;;;;0.37;0.23;;;-1.50;99.90;;;;;;4995860;28;20069;-63
2024/01/13 04:51:43;;;;;;;0.13;0.13;;;-1.50;99.90;;;;;;4998374;28;20437;-63
2024/01/13 04:54:11;;;;;;;0.00;0.00;;;-1.50;99.90;;;;;;4997177;28;20052;-64
2024/01/13 04:56:37;;;;;;;0.00;0.00;;;-1.50;99.90;;;;;;4997454;28;20057;-64
2024/01/13 04:59:02;;;;;;;0.00;0.00;;;-1.50;99.90;;;;;;4995979;28;20061;-63
2024/01/13 05:01:28;;;;;;;0.53;0.53;;;-1.60;99.90;;;;;;4999466;28;20348;-64
2024/01/13 05:03:54;;;;;;;0.32;0.17;;;-1.50;99.90;;;;;;4997200;28;20025;-63
2024/01/13 05:06:20;;;;;;;0.00;0.00;;;-1.60;99.90;;;;;;4993902;28;21120;-63
2024/01/13 05:08:45;;;;;;;0.00;0.00;;;-1.60;99.90;;;;;;4997098;28;20060;-63
2024/01/13 05:11:11;;;;;;;0.00;0.00;;;-1.60;99.90;;;;;;4993836;28;20029;-64
2024/01/13 05:13:38;;;;;;;0.00;0.00;;;-1.70;99.90;;;;;;4996521;28;20026;-64
2024/01/13 05:16:03;;;;;;;0.00;0.00;;;-1.60;99.90;;;;;;4994135;28;20036;-63
2024/01/13 05:18:29;;;;;;;0.00;0.00;;;-1.60;99.90;;;;;;5004136;28;20025;-63
2024/01/13 05:20:55;;;;;;;0.00;0.00;;;-1.60;99.90;;;;;;4994513;28;20102;-67
2024/01/13 05:23:20;;;;;;;0.00;0.00;;;-1.50;99.90;;;;;;4997380;28;20076;-67
2024/01/13 05:25:46;;;;;;;0.00;0.00;;;-1.50;99.90;;;;;;4996388;28;20045;-67
2024/01/13 05:28:12;;;;;;;0.00;0.00;;;-1.60;99.90;;;;;;5020776;28;20058;-67
2024/01/13 05:30:37;;;;;;;0.00;0.00;;;-1.50;99.90;;;;;;5000310;28;20048;-67
2024/01/13 05:33:03;;;;;;;0.00;0.00;;;-1.50;99.90;;;;;;4998464;28;20097;-67
2024/01/13 05:35:29;;;;;;;0.00;0.00;;;-1.60;99.90;;;;;;5027423;28;20064;-67
2024/01/13 05:37:55;;;;;;;0.00;0.00;;;-1.60;99.90;;;;;;4992714;28;20084;-67
2024/01/13 05:40:21;;;;;;;0.00;0.00;;;-1.60;99.90;;;;;;4996816;28;20365;-67
2024/01/13 05:42:46;;;;;;;0.00;0.00;;;-1.50;99.90;;;;;;4995337;28;20137;-67
2024/01/13 05:45:12;;;;;;;0.00;0.00;;;-1.50;99.90;;;;;;4997385;28;20064;-67
2024/01/13 05:47:38;;;;;;;0.00;0.00;;;-1.50;99.90;;;;;;4994299;28;20029;-67
2024/01/13 05:50:04;;;;;;;0.00;0.00;;;-1.60;99.90;;;;;;4999090;28;20040;-66
2024/01/13 05:52:30;;;;;;;0.00;0.00;;;-1.60;99.90;;;;;;4996763;28;20025;-67
2024/01/13 05:54:56;;;;;;;0.00;0.00;;;-1.60;99.90;;;;;;5000592;28;20032;-68
2024/01/13 05:57:22;;;;;;;0.10;0.10;;;-1.60;99.90;;;;;;4996271;28;20944;-68
2024/01/13 05:59:48;;;;;;;0.00;0.00;;;-1.70;99.90;;;;;;5000994;28;20029;-69
2024/01/13 06:02:14;;;;;;;0.00;0.00;;;-1.60;99.90;;;;;;4998673;28;20022;-67
2024/01/13 06:04:40;;;;;;;0.00;0.00;;;-1.60;99.90;;;;;;5001857;28;20022;-67
2024/01/13 06:07:06;;;;;;;0.00;0.00;;;-1.60;99.90;;;;;;5015962;28;20041;-67
2024/01/13 06:09:32;;;;;;;0.00;0.00;;;-1.50;99.90;;;;;;5003372;28;20026;-66
2024/01/13 06:11:58;;;;;;;0.00;0.00;;;-1.50;99.90;;;;;;5001687;28;20271;-67
2024/01/13 06:14:24;;;;;;;0.00;0.00;;;-1.50;99.90;;;;;;5000245;28;20544;-67
2024/01/13 06:16:51;;;;;;;0.00;0.00;;;-1.50;99.90;;;;;;5001011;28;20109;-67
2024/01/13 06:19:16;;;;;;;;;;;-1.50;99.90;;;;;;4999428;28;20040;-67
2024/01/13 06:21:45;;;;;;;0.00;0.00;;;-1.50;99.90;;;;;;5000659;28;19992;-67
2024/01/13 06:24:11;;;;;;;0.00;0.00;;;-1.50;99.90;;;;;;4994977;28;20124;-67
2024/01/13 06:26:39;;;;;;;0.00;0.00;;;-1.50;99.90;;;;;;5001930;28;20061;-67
2024/01/13 06:29:05;;;;;;;0.00;0.00;;;-1.50;99.90;;;;;;4995831;28;20022;-67
2024/01/13 06:31:31;;;;;;;0.00;0.00;;;-1.50;99.90;;;;;;5006995;28;20040;-65
2024/01/13 06:33:56;;;;;;;0.00;0.00;;;-1.60;99.90;;;;;;4996439;28;20117;-64
2024/01/13 06:36:22;;;;;;;0.00;0.00;;;-1.60;99.90;;;;;;5000811;28;20156;-64
2024/01/13 06:38:49;;;;;;;0.00;0.00;;;-1.60;99.90;;;;;;4997633;28;20100;-64
2024/01/13 06:41:15;;;;;;;0.00;0.00;;;-1.60;99.90;;;;;;5000606;28;20026;-64
2024/01/13 06:43:41;;;;;;;0.00;0.00;;;-1.50;99.90;;;;;;4999434;28;20036;-63
2024/01/13 06:46:07;;;;;;;0.00;0.00;;;-1.50;99.90;;;;;;4995824;28;20033;-63
2024/01/13 06:48:33;;;;;;;0.00;0.00;;;-1.50;99.90;;;;;;5017932;28;20488;-64
2024/01/13 06:50:58;;;;;;;0.00;0.00;;;-1.50;99.90;;;;;;4999705;28;20036;-64
2024/01/13 06:53:24;;;;;;;0.00;0.00;;;-1.50;99.90;;;;;;5000033;28;20032;-64
2024/01/13 06:55:50;;;;;;;0.00;0.00;;;-1.50;99.90;;;;;;4999597;28;20767;-64
2024/01/13 06:58:16;;;;;;;0.00;0.00;;;-1.50;99.90;;;;;;5019442;28;20065;-64
2024/01/13 07:00:42;;;;;;;0.00;0.00;;;-1.50;99.90;;;;;;4999783;28;20026;-65
2024/01/13 07:03:07;;;;;;;0.00;0.00;;;-1.50;99.90;;;;;;4995208;28;20034;-64
2024/01/13 07:05:33;;;;;;;0.00;0.00;;;-1.50;99.90;;;;;;5001370;28;20674;-66
2024/01/13 07:08:00;;;;;;;0.00;0.00;;;-1.50;99.90;;;;;;4999681;28;20038;-63
2024/01/13 07:10:28;;;;;;;0.00;0.00;;;-1.50;99.90;;;;;;4997690;28;20100;-65
2024/01/13 07:12:53;;;;;;;0.00;0.00;;;-1.50;99.90;;;;;;4999441;28;20103;-64
2024/01/13 07:15:19;;;;;;;0.10;0.10;;;-1.40;99.90;;;;;;4996553;28;20069;-64
2024/01/13 07:17:45;;;;;;;0.00;0.00;;;-1.40;99.90;;;;;;5000955;28;20037;-64
2024/01/13 07:20:11;;;;;;;0.00;0.00;;;-1.40;99.90;;;;;;5000135;28;20041;-63
2024/01/13 07:22:37;;;;;;;0.00;0.00;;;-1.30;99.90;;;;;;4998252;28;20339;-64
2024/01/13 07:25:03;;;;;;;0.00;0.00;;;-1.30;99.90;;;;;;5022915;28;20050;-63
2024/01/13 07:27:29;;;;;;;0.00;0.00;;;-1.30;99.90;;;;;;4999479;28;20264;-64
2024/01/13 07:29:55;;;;;;;0.00;0.00;;;-1.30;99.90;;;;;;4997657;28;20747;-64
2024/01/13 07:32:21;;;;;;;0.00;0.00;;;-1.30;99.90;;;;;;4999249;28;20022;-65
2024/01/13 07:34:47;;;;;;;0.00;0.00;;;-1.30;99.90;;;;;;4998953;28;20045;-64
2024/01/13 07:37:12;;;;;;;0.00;0.00;;;-1.30;99.90;;;;;;4996488;28;20129;-63
2024/01/13 07:39:38;;;;;;;0.00;0.00;;;-1.20;99.90;;;;;;4999186;28;20198;-64
2024/01/13 07:42:04;;;;;;;0.00;0.00;;;-1.20;99.90;;;;;;4999989;28;20026;-64
2024/01/13 07:44:29;;;;;;;0.00;0.00;;;-1.20;99.90;;;;;;4993149;28;20401;-64
2024/01/13 07:47:00;;;;;;;0.00;0.00;;;-1.10;99.90;;;;;;4998609;28;20050;-65
2024/01/13 07:49:30;;;;;;;0.00;0.00;;;-1.20;99.90;;;;;;4991752;28;20493;-65
2024/01/13 07:51:57;;;;;;;0.00;0.00;;;-1.10;99.90;;;;;;4996629;28;20571;-64
2024/01/13 07:54:23;;;;;;;0.00;0.00;;;-1.10;99.90;;;;;;4994610;28;20053;-63
2024/01/13 07:56:49;;;;;;;;;;;-1.10;99.90;;;;;;4997734;28;20543;-64
2024/01/13 07:59:18;;;;;;;0.00;0.00;;;-1.00;99.90;;;;;;4998560;28;19997;-63
2024/01/13 08:01:45;;;;;;;0.00;0.00;;;-1.00;99.90;;;;;;5027035;28;20026;-64
2024/01/13 08:04:13;;;;;;;0.00;0.00;;;-1.10;99.90;;;;;;4997568;28;20013;-64
2024/01/13 08:06:39;;;;;;;0.00;0.00;;;-1.10;99.90;;;;;;5014478;28;20129;-66
2024/01/13 08:09:05;;;;;;;;;;;-1.10;99.90;;;;;;5009251;28;20065;-64
2024/01/13 08:11:31;;;;;;;0.00;0.00;;;-1.10;99.90;;;;;;5003304;28;19960;-63
2024/01/13 08:13:57;;;;;;;0.00;0.00;;;-1.20;99.90;;;;;;4996406;28;20708;-63
2024/01/13 08:16:23;;;;;;;0.00;0.00;;;-1.30;99.90;;;;;;5000648;28;20125;-64
2024/01/13 08:18:49;;;;;;;0.57;0.57;;;-1.30;99.90;;;;;;4998473;28;20026;-63
2024/01/13 08:21:15;;;;;;;0.03;0.03;;;-1.20;99.90;;;;;;5024998;28;20470;-63
2024/01/13 08:23:41;;;;;;;0.00;0.00;;;-1.30;99.90;;;;;;4995359;28;20037;-63
2024/01/13 08:26:07;;;;;;;0.00;0.00;;;-1.30;99.90;;;;;;4999518;28;20124;-63
2024/01/13 08:28:33;;;;;;;0.00;0.00;;;-1.30;99.90;;;;;;4997965;28;20033;-63
2024/01/13 08:30:59;;;;;;;0.00;0.00;;;-1.20;99.90;;;;;;5000016;28;20064;-64
2024/01/13 08:33:24;;;;;;;0.00;0.00;;;-1.10;99.90;;;;;;5010098;28;20442;-63
2024/01/13 08:35:50;;;;;;;0.00;0.00;;;-1.00;99.90;;;;;;4997081;28;20026;-63
2024/01/13 08:38:16;;;;;;;0.00;0.00;;;-0.90;99.90;;;;;;5011724;28;20412;-64
2024/01/13 08:40:44;;;;;;;0.00;0.00;;;-0.90;99.90;;;;;;4998806;28;20099;-64
2024/01/13 08:43:09;;;;;;;0.47;0.47;;;-0.80;99.90;;;;;;4997440;28;20030;-65
2024/01/13 08:45:35;;;;;;;0.00;0.00;;;-0.80;99.90;;;;;;4994533;28;20034;-65
2024/01/13 08:48:01;;;;;;;0.17;0.17;;;-0.70;99.90;;;;;;4997344;28;20060;-63
2024/01/13 08:50:27;;;;;;;0.00;0.00;;;-0.80;99.90;;;;;;4994112;28;20478;-64
2024/01/13 08:52:55;;;;;;;0.00;0.00;;;-0.80;99.90;;;;;;4997583;28;20041;-63
2024/01/13 08:55:24;;;;;;;0.00;0.00;;;-0.80;99.90;;;;;;4996598;28;20030;-63
2024/01/13 08:57:50;;;;;;;0.00;0.00;;;-0.60;99.90;;;;;;4991687;28;20053;-63
2024/01/13 09:00:16;;;;;;;0.00;0.00;;;-0.60;99.90;;;;;;4996447;28;20021;-64
2024/01/13 09:02:42;;;;;;;0.00;0.00;;;-0.50;99.90;;;;;;4994170;28;20645;-63
2024/01/13 09:05:09;;;;;;;0.00;0.00;;;-0.50;99.90;;;;;;4998796;28;20168;-62
2024/01/13 09:07:36;;;;;;;0.00;0.00;;;-0.40;99.90;;;;;;4995070;28;20030;-65
2024/01/13 09:10:02;;;;;;;0.00;0.00;;;-0.20;99.90;;;;;;5002306;28;20026;-63
2024/01/13 09:12:28;;;;;;;0.00;0.00;;;-0.10;99.90;;;;;;4995450;28;20116;-63
2024/01/13 09:14:54;;;;;;;0.00;0.00;;;-0.20;99.90;;;;;;4999296;28;20593;-63
2024/01/13 09:17:20;;;;;;;0.00;0.00;;;-0.10;99.90;;;;;;4994981;28;20013;-63
2024/01/13 09:19:45;;;;;;;0.00;0.00;;;-0.20;99.90;;;;;;4997947;28;20018;-63
2024/01/13 09:22:11;;;;;;;0.00;0.00;;;-0.20;99.90;;;;;;4994313;28;21380;-64
2024/01/13 09:24:37;;;;;;;0.00;0.00;;;-0.20;99.90;;;;;;4997842;28;20036;-64
2024/01/13 09:27:03;;;;;;;0.00;0.00;;;-0.10;99.90;;;;;;4998855;28;20036;-64
2024/01/13 09:29:28;;;;;;;0.00;0.00;;;0.10;99.90;;;;;;4999827;28;20069;-63
2024/01/13 09:31:54;;;;;;;0.00;0.00;;;0.20;99.90;;;;;;5004133;28;20057;-62
2024/01/13 09:34:20;;;;;;;1.07;0.73;;;0.20;99.90;;;;;;5000441;28;20397;-62
2024/01/13 09:36:46;;;;;;;0.00;0.00;;;0.00;99.90;;;;;;5002263;28;21439;-62
2024/01/13 09:39:14;;;;;;;0.00;0.00;;;0.10;99.90;;;;;;5001121;28;20155;-62
2024/01/13 09:41:41;;;;;;;0.00;0.00;;;0.20;99.90;;;;;;4999684;28;20478;-63
2024/01/13 09:44:22;;;;;;;0.00;0.00;;;0.10;99.90;;;;;;5020213;28;20018;-62
2024/01/13 09:46:52;;;;;;;0.00;0.00;;;0.20;99.90;;;;;;4996692;28;20075;-63
2024/01/13 09:49:19;;;;;;;0.00;0.00;;;0.30;99.90;;;;;;5000683;28;20069;-62
2024/01/13 09:51:46;;;;;;;0.10;0.10;;;0.60;99.90;;;;;;5001125;28;20029;-62
2024/01/13 09:54:25;;;;;;;0.22;0.22;;;0.80;99.90;;;;;;4998906;28;20151;-62
2024/01/13 09:56:52;;;;;;;0.00;0.00;;;0.90;99.90;;;;;;4997637;28;20034;-63
2024/01/13 09:59:22;;;;;;;0.00;0.00;;;1.30;99.90;;;;;;4998036;28;20521;-63
2024/01/13 10:01:48;;;;;;;0.00;0.00;;;1.70;99.90;;;;;;5001933;28;20033;-63
2024/01/13 10:04:14;;;;;;;;;;;2.60;99.90;;;;;;5000308;28;20708;-63
2024/01/13 10:06:41;;;;;;;0.00;0.00;;;2.70;99.90;;;;;;4995624;28;19909;-62
2024/01/13 10:09:08;;;;;;;0.00;0.00;;;3.20;99.90;;;;;;5016394;28;20073;-62
2024/01/13 10:11:34;;;;;;;0.00;0.00;;;4.20;99.90;;;;;;5001975;28;20022;-63
2024/01/13 10:14:04;;;;;;;0.00;0.00;;;6.50;99.90;;;;;;4998040;28;20040;-62
2024/01/13 10:16:33;;;;;;;0.00;0.00;;;8.40;98.30;;;;;;4999981;28;20033;-63
2024/01/13 10:19:07;;;;;;;0.00;0.00;;;10.00;94.60;;;;;;5001997;28;20080;-64
2024/01/13 10:21:34;;;;;;;0.00;0.00;;;11.20;91.50;;;;;;5003951;28;20384;-64
2024/01/13 10:24:00;;;;;;;0.00;0.00;;;12.20;86.30;;;;;;5001320;28;20038;-62
2024/01/13 10:26:30;;;;;;;0.10;0.10;;;13.60;90.50;;;;;;5000775;28;20075;-65
2024/01/13 10:28:56;;;;;;;0.00;0.00;;;15.00;76.80;;;;;;4997286;28;20450;-64
2024/01/13 10:31:23;;;;;;;0.00;0.00;;;15.10;71.80;;;;;;5001689;28;20424;-63
2024/01/13 10:33:49;;;;;;;0.00;0.00;;;16.00;68.90;;;;;;4996639;28;20034;-62
2024/01/13 10:36:18;;;;;;;0.00;0.00;;;16.00;66.50;;;;;;4999344;28;20025;-62
2024/01/13 10:38:44;;;;;;;3.30;0.52;;;16.90;64.90;;;;;;4996034;28;20057;-62
2024/01/13 10:41:10;;;;;;;0.00;0.00;;;17.10;63.20;;;;;;4998756;28;20369;-63
2024/01/13 10:43:46;;;;;;;0.20;0.20;;;17.20;61.60;;;;;;4996062;28;20398;-63
2024/01/13 10:46:13;;;;;;;0.00;0.00;;;17.40;61.50;;;;;;4999651;28;20045;-62
2024/01/13 10:48:45;;;;;;;0.00;0.00;;;17.30;60.20;;;;;;4994803;28;20022;-62
2024/01/13 10:51:36;;;;;;;0.00;0.00;;;17.60;58.80;;;;;;5000194;28;21472;-62
2024/01/13 10:54:03;;;;;;;0.00;0.00;;;18.40;58.40;;;;;;4996695;28;20021;-62
2024/01/13 10:56:30;;;;;;;0.00;0.00;;;18.40;57.10;;;;;;4998985;28;20045;-62
2024/01/13 10:58:59;;;;;;;0.22;0.22;;;17.80;57.20;;;;;;5011187;28;21125;-63
2024/01/13 11:01:26;;;;;;;0.00;0.00;;;17.70;57.50;;;;;;5002440;28;20022;-63
2024/01/13 11:03:54;;;;;;;0.10;0.10;;;16.40;58.10;;;;;;4999318;28;20101;-63
2024/01/13 11:06:23;;;;;;;0.00;0.00;;;16.40;58.50;;;;;;5000419;28;20068;-63
2024/01/13 11:08:50;;;;;;;0.25;0.08;;;15.80;58.70;;;;;;4999329;28;20034;-63
2024/01/13 11:11:28;;;;;;;0.00;0.00;;;15.20;59.70;;;;;;4998294;28;20485;-66
2024/01/13 11:14:04;;;;;;;0.60;0.52;;;13.30;61.60;;;;;;5014907;28;20577;-65
2024/01/13 11:16:32;;;;;;;0.00;0.00;;;10.50;65.90;;;;;;4998054;28;20054;-65
2024/01/13 11:18:58;;;;;;;0.00;0.00;;;8.70;70.50;;;;;;5001261;28;20501;-65
2024/01/13 11:21:32;;;;;;;0.00;0.00;;;7.60;73.70;;;;;;5001927;28;20087;-65
2024/01/13 11:24:07;;;;;;;0.00;0.00;;;6.80;76.70;;;;;;4994544;28;20435;-65
2024/01/13 11:26:37;;;;;;;0.00;0.00;;;6.20;79.90;;;;;;5001252;28;20034;-65
2024/01/13 11:29:16;;;;;;;0.00;0.00;;;5.70;82.70;;;;;;4999672;28;20025;-65
2024/01/13 11:31:42;;;;;;;0.05;0.05;;;5.30;85.10;;;;;;4998552;28;21519;-65
2024/01/13 11:34:12;;;;;;;0.00;0.00;;;5.20;88.10;;;;;;4994057;28;20485;-65
2024/01/13 11:36:50;;;;;;;0.00;0.00;;;5.10;90.20;;;;;;5004438;28;20065;-65
2024/01/13 11:39:20;;;;;;;0.00;0.00;;;5.10;90.70;;;;;;5001369;28;20053;-64
2024/01/13 11:41:48;;;;;;;0.00;0.00;;;4.90;91.10;;;;;;4997677;28;20040;-65
2024/01/13 11:44:24;;;;;;;0.00;0.00;;;4.90;91.60;;;;;;4998869;28;20024;-65
2024/01/13 11:47:06;;;;;;;0.00;0.00;;;5.00;92.40;;;;;;5031983;28;20057;-65
2024/01/13 11:49:45;;;;;;;0.00;0.00;;;4.80;92.50;;;;;;5001387;28;20440;-65
2024/01/13 11:52:30;;;;;;;0.00;0.00;;;4.70;93.20;;;;;;5011694;28;20025;-65
2024/01/13 11:54:56;;;;;;;0.00;0.00;;;4.60;93.80;;;;;;5000634;28;20573;-65
2024/01/13 11:57:22;;;;;;;3.83;0.73;;;4.50;94.20;;;;;;5001041;28;20109;-66
2024/01/13 11:59:49;;;;;;;0.00;0.00;;;4.30;94.60;;;;;;4995513;28;20275;-66
2024/01/13 12:02:15;;;;;;;0.00;0.00;;;4.30;95.10;;;;;;4998675;28;20061;-66
2024/01/13 12:04:42;;;;;;;0.00;0.00;;;4.30;95.20;;;;;;4996436;28;20068;-66
2024/01/13 12:07:10;;;;;;;0.05;0.05;;;4.10;95.60;;;;;;4997455;28;20030;-67
2024/01/13 12:09:37;;;;;;;0.00;0.00;;;4.10;96.40;;;;;;4997431;28;20622;-68
2024/01/13 12:12:05;;;;;;;0.00;0.00;;;4.20;98.40;;;;;;4996108;28;20061;-67
2024/01/13 12:14:34;;;;;;;0.00;0.00;;;4.40;99.40;;;;;;4999721;28;20030;-67
2024/01/13 12:17:01;;;;;;;1.38;1.27;;;4.30;98.60;;;;;;4995488;28;20456;-66
2024/01/13 12:19:29;;;;;;;0.00;0.00;;;4.30;98.70;;;;;;5000207;28;20414;-65
2024/01/13 12:21:55;;;;;;;0.00;0.00;;;4.30;98.90;;;;;;4997568;28;20156;-62
2024/01/13 12:24:32;;;;;;;0.00;0.00;;;4.40;98.70;;;;;;4992190;28;20499;-64
2024/01/13 12:26:58;;;;;;;0.00;0.00;;;4.20;99.80;;;;;;4995856;28;20493;-64
2024/01/13 12:29:30;;;;;;;0.00;0.00;;;4.30;99.70;;;;;;4993957;28;20118;-63
2024/01/13 12:31:57;;;;;;;0.00;0.00;;;4.30;98.70;;;;;;4992518;28;20033;-63
2024/01/13 12:34:23;;;;;;;0.00;0.00;;;4.20;99.00;;;;;;5025178;28;20045;-63
2024/01/13 12:36:51;;;;;;;0.00;0.00;;;4.10;98.80;;;;;;4997080;28;20921;-62
2024/01/13 12:39:17;;;;;;;0.03;0.03;;;4.10;98.90;;;;;;4995449;28;20650;-62
2024/01/13 12:41:43;;;;;;;0.00;0.00;;;4.10;98.70;;;;;;5025836;28;20029;-63
2024/01/13 12:44:09;;;;;;;0.00;0.00;;;3.80;99.10;;;;;;4998240;28;20029;-63
2024/01/13 12:46:36;;;;;;;0.00;0.00;;;3.70;99.60;;;;;;4998259;28;20053;-64
2024/01/13 12:49:14;;;;;;;0.00;0.00;;;3.60;99.90;;;;;;4998367;28;20556;-63